Terminal Aerodrome Forecast
Issued by NWS

Home | Current Version | Previous Version | Text Only | Print | Product List | Glossary Off
Versions: 1 2 3 4 5 6 7 8 9 10 11 12 13 14 15 16 17

000
FTUS43 KICT 191734
TAFCNU
TAF
KCNU 191734Z 1918/2018 14008KT P6SM VCTS SCT015 BKN035CB
      TEMPO 1918/1919 -TSRA
     FM200700 14008KT P6SM VCSH SCT015 BKN025
     FM200900 26010KT P6SM VCSH SCT015 BKN025=

USA.gov is the U.S. government's official web portal to all federal, state and local government web resources and services.